Time;durP1;ratioP1;P1;durP2;ratioP2;P2;SDS_P1;SDS_P2;PMS_P1;PMS_P2;Temp;Humidity;BMP_temperature;BMP_pressure;BME280_temperature;BME280_humidity;BME280_pressure;Samples;Min_cycle;Max_cycle;Signal;HPM_P1;HPM_P2
2021/04/10 00:00:40;;;;;;;20.42;1.60;;;4.70;99.90;;;;;;5033721;28;20044;-87
2021/04/10 00:03:07;;;;;;;5.75;0.98;;;4.70;99.90;;;;;;5045166;28;20430;-82
2021/04/10 00:05:33;;;;;;;16.20;1.30;;;4.60;99.90;;;;;;5050175;28;20151;-83
2021/04/10 00:07:59;;;;;;;12.63;1.40;;;4.60;99.90;;;;;;5036146;28;20044;-82
2021/04/10 00:10:27;;;;;;;11.48;1.35;;;4.70;99.90;;;;;;5050666;28;20032;-83
2021/04/10 00:12:54;;;;;;;11.30;1.50;;;4.50;99.90;;;;;;5068264;28;20043;-82
2021/04/10 00:15:20;;;;;;;15.13;1.40;;;4.60;99.90;;;;;;5069033;28;20088;-83
2021/04/10 00:17:47;;;;;;;11.57;1.70;;;4.50;99.90;;;;;;5051376;28;20042;-82
2021/04/10 00:20:16;;;;;;;8.50;1.10;;;4.50;99.90;;;;;;5049862;28;20044;-86
2021/04/10 00:22:42;;;;;;;18.23;1.57;;;4.50;99.90;;;;;;5048644;28;20037;-86
2021/04/10 00:25:09;;;;;;;14.70;1.85;;;4.50;99.90;;;;;;5070139;28;20044;-80
2021/04/10 00:27:36;;;;;;;8.65;2.03;;;4.50;99.90;;;;;;5069763;28;20044;-81
2021/04/10 00:30:04;;;;;;;11.18;1.60;;;4.50;99.90;;;;;;5068722;28;20614;-81
2021/04/10 00:32:29;;;;;;;5.70;1.50;;;4.50;99.90;;;;;;5065405;28;20044;-82
2021/04/10 00:34:55;;;;;;;11.50;1.80;;;4.50;99.90;;;;;;5041431;28;20491;-81
2021/04/10 00:37:21;;;;;;;9.98;1.30;;;4.50;99.90;;;;;;5053186;28;20048;-82
2021/04/10 00:39:49;;;;;;;12.77;1.52;;;4.50;99.90;;;;;;5032956;28;20045;-82
2021/04/10 00:42:15;;;;;;;11.30;1.38;;;4.50;99.90;;;;;;5052466;28;20062;-82
2021/04/10 00:44:41;;;;;;;21.92;1.80;;;4.50;99.90;;;;;;5052098;28;20048;-83
2021/04/10 00:47:06;;;;;;;6.68;1.50;;;4.40;99.90;;;;;;5050088;28;20080;-83
2021/04/10 00:49:32;;;;;;;12.02;2.25;;;4.50;99.90;;;;;;5051077;28;20048;-83
2021/04/10 00:51:59;;;;;;;13.45;1.30;;;4.50;99.90;;;;;;5033738;28;20055;-82
2021/04/10 00:54:25;;;;;;;10.43;1.40;;;4.40;99.90;;;;;;5035755;28;20040;-82
2021/04/10 00:56:51;;;;;;;14.98;2.20;;;4.40;99.90;;;;;;5048406;28;20437;-82
2021/04/10 00:59:17;;;;;;;11.77;2.17;;;4.40;99.90;;;;;;5051947;28;20472;-83
2021/04/10 01:01:43;;;;;;;5.68;1.23;;;4.40;99.90;;;;;;5051465;28;20045;-82
2021/04/10 01:04:09;;;;;;;13.23;1.35;;;4.40;99.90;;;;;;5049176;28;20045;-83
2021/04/10 01:06:34;;;;;;;11.85;1.30;;;4.40;99.90;;;;;;5035680;28;20093;-84
2021/04/10 01:09:00;;;;;;;8.10;1.35;;;4.40;99.90;;;;;;5068967;28;20079;-83
2021/04/10 01:11:44;;;;;;;12.85;1.33;;;4.40;99.90;;;;;;5019447;28;20048;-82
2021/04/10 01:14:46;;;;;;;10.13;1.35;;;4.40;99.90;;;;;;5069756;28;20094;-82
2021/04/10 01:17:18;;;;;;;12.68;2.53;;;4.40;99.90;;;;;;5046089;28;20056;-82
2021/04/10 01:20:06;;;;;;;12.75;1.45;;;4.50;99.90;;;;;;5052445;28;20481;-86
2021/04/10 01:22:44;;;;;;;18.17;2.53;;;4.40;99.90;;;;;;5051019;28;20638;-83
2021/04/10 01:25:31;;;;;;;11.15;2.28;;;4.30;99.90;;;;;;5051538;28;20169;-82
2021/04/10 01:27:58;;;;;;;8.98;1.13;;;4.30;99.90;;;;;;5068265;28;20047;-83
2021/04/10 01:30:26;;;;;;;23.17;1.55;;;4.30;99.90;;;;;;5051834;28;20052;-83
2021/04/10 01:33:06;;;;;;;12.43;1.60;;;4.30;99.90;;;;;;5068189;28;20040;-82
2021/04/10 01:35:48;;;;;;;8.82;1.25;;;4.30;99.90;;;;;;5069841;28;20044;-82
2021/04/10 01:38:17;;;;;;;15.20;2.55;;;4.40;99.90;;;;;;5052313;28;20471;-82
2021/04/10 01:40:47;;;;;;;18.67;1.70;;;4.30;99.90;;;;;;5052256;28;20040;-82
2021/04/10 01:43:14;;;;;;;12.93;1.88;;;4.20;99.90;;;;;;5066643;28;20055;-83
2021/04/10 01:45:41;;;;;;;10.30;1.63;;;4.30;99.90;;;;;;5052731;28;20044;-82
2021/04/10 01:48:10;;;;;;;9.77;1.85;;;4.30;99.90;;;;;;5033742;28;20053;-83
2021/04/10 01:50:37;;;;;;;10.23;1.30;;;4.30;99.90;;;;;;5070542;28;20032;-83
2021/04/10 01:53:05;;;;;;;14.27;1.73;;;4.30;99.90;;;;;;5068194;28;20059;-83
2021/04/10 01:55:31;;;;;;;13.48;1.60;;;4.20;99.90;;;;;;5069211;28;20051;-82
2021/04/10 01:57:58;;;;;;;13.50;1.30;;;4.30;99.90;;;;;;5069587;28;20036;-83
2021/04/10 02:00:27;;;;;;;13.50;1.75;;;4.30;99.90;;;;;;5052394;28;20059;-82
2021/04/10 02:02:54;;;;;;;13.75;2.42;;;4.30;99.90;;;;;;5051547;28;20056;-84
2021/04/10 02:05:21;;;;;;;19.40;1.83;;;4.30;99.90;;;;;;5068771;28;20145;-85
2021/04/10 02:07:47;;;;;;;12.18;2.35;;;4.30;99.90;;;;;;5069377;28;20041;-82
2021/04/10 02:10:16;;;;;;;21.38;2.80;;;4.20;99.90;;;;;;5050725;28;20045;-83
2021/04/10 02:12:44;;;;;;;15.27;1.95;;;4.30;99.90;;;;;;5051599;28;20044;-83
2021/04/10 02:15:11;;;;;;;20.02;2.10;;;4.30;99.90;;;;;;5069073;28;20162;-83
2021/04/10 02:17:37;;;;;;;14.30;1.90;;;4.30;99.90;;;;;;5051615;28;20117;-83
2021/04/10 02:20:11;;;;;;;19.73;2.17;;;4.30;99.90;;;;;;5067594;28;20044;-82
2021/04/10 02:22:38;;;;;;;19.38;2.25;;;4.30;99.90;;;;;;5033896;28;20481;-83
2021/04/10 02:25:05;;;;;;;13.57;1.80;;;4.30;99.90;;;;;;5050499;28;20063;-82
2021/04/10 02:27:31;;;;;;;27.42;2.83;;;4.30;99.90;;;;;;5051063;28;20051;-83
2021/04/10 02:29:59;;;;;;;14.73;2.13;;;4.30;99.90;;;;;;5068437;28;20071;-82
2021/04/10 02:32:33;;;;;;;10.10;1.90;;;4.30;99.90;;;;;;5033033;28;20408;-82
2021/04/10 02:35:08;;;;;;;18.50;2.42;;;4.20;99.90;;;;;;5068180;28;20044;-82
2021/04/10 02:37:34;;;;;;;25.77;2.60;;;4.30;99.90;;;;;;5068961;28;20052;-82
2021/04/10 02:40:03;;;;;;;15.65;2.05;;;4.30;99.90;;;;;;5035639;28;20037;-82
2021/04/10 02:42:31;;;;;;;11.80;1.60;;;4.20;99.90;;;;;;5054885;28;20072;-83
2021/04/10 02:44:59;;;;;;;14.60;1.90;;;4.30;99.90;;;;;;5072211;28;20072;-82
2021/04/10 02:47:28;;;;;;;14.25;2.72;;;4.30;99.90;;;;;;5072584;28;20056;-84
2021/04/10 02:49:56;;;;;;;12.80;2.15;;;4.30;99.90;;;;;;5053315;28;20051;-88
2021/04/10 02:52:45;;;;;;;18.33;2.65;;;4.30;99.90;;;;;;5061570;28;20512;-82
2021/04/10 02:55:13;;;;;;;13.93;1.85;;;4.30;99.90;;;;;;5071548;28;20047;-82
2021/04/10 02:57:41;;;;;;;13.43;1.75;;;4.30;99.90;;;;;;5072749;28;20041;-82
2021/04/10 03:00:07;;;;;;;13.65;1.90;;;4.20;99.90;;;;;;5071366;28;20040;-82
2021/04/10 03:02:37;;;;;;;21.75;4.40;;;4.30;99.90;;;;;;5049642;28;20048;-82
2021/04/10 03:05:05;;;;;;;20.92;2.15;;;4.30;99.90;;;;;;5053388;28;20045;-82
2021/04/10 03:07:32;;;;;;;21.83;2.55;;;4.30;99.90;;;;;;5072195;28;20147;-82
2021/04/10 03:09:58;;;;;;;15.05;1.98;;;4.30;99.90;;;;;;5053167;28;20066;-82
2021/04/10 03:12:25;;;;;;;13.02;1.75;;;4.20;99.90;;;;;;5035922;28;20102;-81
2021/04/10 03:14:51;;;;;;;16.17;1.73;;;4.20;99.90;;;;;;5070864;28;20127;-81
2021/04/10 03:17:21;;;;;;;13.70;2.10;;;4.20;99.90;;;;;;5050462;28;20231;-85
2021/04/10 03:19:49;;;;;;;10.18;1.73;;;4.20;99.90;;;;;;5072358;28;20045;-83
2021/04/10 03:22:16;;;;;;;19.25;1.77;;;4.20;99.90;;;;;;5033813;28;20620;-82
2021/04/10 03:24:43;;;;;;;8.68;1.40;;;4.20;99.90;;;;;;5053205;28;20049;-83
2021/04/10 03:27:10;;;;;;;20.15;2.47;;;4.20;99.90;;;;;;5025605;28;20045;-82
2021/04/10 03:29:37;;;;;;;18.15;2.05;;;4.20;99.90;;;;;;5051084;28;20574;-82
2021/04/10 03:32:04;;;;;;;16.35;2.13;;;4.20;99.90;;;;;;5050160;28;20071;-83
2021/04/10 03:34:30;;;;;;;23.17;3.47;;;4.20;99.90;;;;;;5067804;28;20503;-83
2021/04/10 03:36:56;;;;;;;13.98;1.40;;;4.20;99.90;;;;;;5054101;28;20049;-88
2021/04/10 03:39:23;;;;;;;13.05;1.88;;;4.20;99.90;;;;;;5072025;28;20075;-82
2021/04/10 03:41:49;;;;;;;9.90;1.60;;;4.20;99.90;;;;;;5072102;28;20045;-83
2021/04/10 03:44:14;;;;;;;15.02;1.95;;;4.20;99.90;;;;;;5033101;28;20056;-82
2021/04/10 03:46:40;;;;;;;10.45;1.42;;;4.20;99.90;;;;;;5050608;28;20091;-81
2021/04/10 03:49:07;;;;;;;11.40;1.90;;;4.20;99.90;;;;;;5036054;28;20044;-81
2021/04/10 03:51:36;;;;;;;9.18;1.70;;;4.20;99.90;;;;;;5034580;28;20104;-84
2021/04/10 03:54:03;;;;;;;17.45;1.98;;;4.20;99.90;;;;;;5041077;28;20050;-82
2021/04/10 03:56:30;;;;;;;15.05;2.22;;;4.30;99.90;;;;;;5053107;28;20051;-82
2021/04/10 03:58:58;;;;;;;14.45;2.20;;;4.30;99.90;;;;;;5052793;28;20475;-87
2021/04/10 04:01:23;;;;;;;18.58;2.13;;;4.30;99.90;;;;;;5053505;28;20044;-81
2021/04/10 04:03:49;;;;;;;10.80;1.85;;;4.30;99.90;;;;;;5020197;28;20040;-82
2021/04/10 04:06:15;;;;;;;12.38;2.05;;;4.30;99.90;;;;;;5052651;28;20405;-82
2021/04/10 04:08:41;;;;;;;13.68;1.80;;;4.30;99.90;;;;;;5052573;28;20516;-81
2021/04/10 04:11:06;;;;;;;12.90;1.52;;;4.30;99.90;;;;;;5035563;28;20029;-81
2021/04/10 04:13:32;;;;;;;11.93;1.30;;;4.30;99.90;;;;;;5053141;28;20446;-82
2021/04/10 04:15:58;;;;;;;8.20;1.48;;;4.30;99.90;;;;;;5052650;28;20044;-86
2021/04/10 04:18:24;;;;;;;12.95;1.55;;;4.30;99.90;;;;;;5069723;28;20037;-82
2021/04/10 04:20:49;;;;;;;5.65;1.25;;;4.30;99.90;;;;;;5036277;28;20072;-83
2021/04/10 04:23:16;;;;;;;7.10;1.60;;;4.30;99.90;;;;;;5052527;28;20036;-81
2021/04/10 04:25:41;;;;;;;13.13;1.33;;;4.30;99.90;;;;;;5052962;28;20115;-83
2021/04/10 04:28:07;;;;;;;11.82;1.75;;;4.30;99.90;;;;;;5036294;28;20044;-81
2021/04/10 04:30:33;;;;;;;4.30;0.95;;;4.30;99.90;;;;;;5032879;28;20041;-81
2021/04/10 04:32:58;;;;;;;9.77;1.05;;;4.30;99.90;;;;;;5050057;28;20123;-87
2021/04/10 04:35:24;;;;;;;13.88;1.00;;;4.30;99.90;;;;;;5032122;28;20063;-81
2021/04/10 04:37:50;;;;;;;10.75;1.23;;;4.30;99.90;;;;;;5065716;28;20044;-81
2021/04/10 04:40:16;;;;;;;9.75;1.83;;;4.30;99.90;;;;;;5035041;28;20047;-81
2021/04/10 04:42:42;;;;;;;12.95;1.67;;;4.30;99.90;;;;;;5052551;28;20056;-82
2021/04/10 04:45:08;;;;;;;10.73;1.65;;;4.20;99.90;;;;;;5069688;28;20044;-82
2021/04/10 04:47:34;;;;;;;16.75;2.08;;;4.20;99.90;;;;;;5052024;28;20052;-82
2021/04/10 04:50:01;;;;;;;20.48;2.47;;;4.20;99.90;;;;;;5069933;28;20094;-86
2021/04/10 04:52:30;;;;;;;13.15;1.60;;;4.20;99.90;;;;;;5051830;28;20044;-82
2021/04/10 04:54:56;;;;;;;13.02;1.35;;;4.20;99.90;;;;;;5034141;28;20044;-84
2021/04/10 04:57:22;;;;;;;7.80;1.20;;;4.20;99.90;;;;;;5051542;28;20163;-82
2021/04/10 04:59:48;;;;;;;6.43;1.45;;;4.20;99.90;;;;;;5064275;28;20036;-83
2021/04/10 05:02:14;;;;;;;16.27;2.35;;;4.30;99.90;;;;;;5050624;28;20089;-82
2021/04/10 05:04:41;;;;;;;12.10;1.63;;;4.20;99.90;;;;;;5052152;28;20041;-82
2021/04/10 05:07:07;;;;;;;9.13;1.52;;;4.30;99.90;;;;;;5051299;28;20040;-82
2021/04/10 05:09:33;;;;;;;16.70;1.58;;;4.30;99.90;;;;;;5050280;28;20036;-82
2021/04/10 05:11:58;;;;;;;10.20;1.30;;;4.30;99.90;;;;;;5012690;28;20032;-82
2021/04/10 05:14:24;;;;;;;15.75;1.83;;;4.30;99.90;;;;;;5050049;28;20124;-81
2021/04/10 05:16:50;;;;;;;12.73;2.20;;;4.30;99.90;;;;;;5051331;28;20159;-82
2021/04/10 05:19:16;;;;;;;13.68;1.60;;;4.30;99.90;;;;;;5033715;28;20081;-83
2021/04/10 05:21:41;;;;;;;13.75;1.90;;;4.30;99.90;;;;;;5035262;28;20119;-83
2021/04/10 05:24:08;;;;;;;9.70;1.83;;;4.30;99.90;;;;;;5050639;28;20040;-83
2021/04/10 05:26:34;;;;;;;12.20;1.60;;;4.30;99.90;;;;;;5051798;28;20106;-83
2021/04/10 05:29:00;;;;;;;15.35;2.28;;;4.30;99.90;;;;;;5069789;28;20967;-81
2021/04/10 05:31:25;;;;;;;19.73;2.15;;;4.30;99.90;;;;;;5068039;28;20040;-82
2021/04/10 05:33:51;;;;;;;13.32;1.55;;;4.30;99.90;;;;;;5031159;28;20045;-81
2021/04/10 05:36:17;;;;;;;17.90;1.75;;;4.30;99.90;;;;;;5031259;28;20083;-85
2021/04/10 05:38:43;;;;;;;11.73;1.77;;;4.40;99.90;;;;;;5051502;28;20394;-82
2021/04/10 05:41:08;;;;;;;10.98;1.88;;;4.40;99.90;;;;;;5069188;28;20134;-85
2021/04/10 05:43:34;;;;;;;17.60;2.22;;;4.40;99.90;;;;;;5051943;28;20048;-82
2021/04/10 05:46:00;;;;;;;11.70;1.40;;;4.40;99.90;;;;;;5031147;28;20052;-81
2021/04/10 05:48:26;;;;;;;14.13;2.22;;;4.40;99.90;;;;;;5032362;28;20066;-82
2021/04/10 05:50:54;;;;;;;10.68;1.55;;;4.50;99.90;;;;;;5051123;28;20041;-81
2021/04/10 05:53:19;;;;;;;12.13;2.53;;;4.50;99.90;;;;;;5068124;28;20563;-81
2021/04/10 05:55:45;;;;;;;13.38;1.40;;;4.50;99.90;;;;;;5069108;28;20044;-82
2021/04/10 05:58:11;;;;;;;15.60;1.83;;;4.60;99.90;;;;;;5068268;28;20488;-83
2021/04/10 06:00:37;;;;;;;13.63;1.83;;;4.60;99.90;;;;;;5050709;28;20452;-81
2021/04/10 06:03:03;;;;;;;12.18;1.90;;;4.60;99.90;;;;;;5042556;28;20200;-82
2021/04/10 06:05:28;;;;;;;13.07;1.92;;;4.70;99.90;;;;;;5066922;28;20037;-81
2021/04/10 06:07:54;;;;;;;7.28;1.73;;;4.70;99.90;;;;;;5051019;28;20041;-81
2021/04/10 06:10:21;;;;;;;8.57;1.63;;;4.80;99.90;;;;;;5037285;28;20044;-81
2021/04/10 06:12:47;;;;;;;13.90;1.95;;;4.80;99.90;;;;;;5040300;28;20500;-81
2021/04/10 06:15:19;;;;;;;9.80;2.53;;;4.80;99.90;;;;;;5072299;28;20048;-83
2021/04/10 06:17:45;;;;;;;13.25;1.30;;;4.80;99.90;;;;;;5072942;28;20387;-83
2021/04/10 06:20:13;;;;;;;15.40;2.58;;;4.90;99.90;;;;;;5064964;28;20037;-88
2021/04/10 06:22:39;;;;;;;11.50;2.22;;;5.00;99.90;;;;;;5069133;28;20090;-83
2021/04/10 06:25:07;;;;;;;10.75;1.45;;;5.10;99.90;;;;;;5038804;28;20777;-82
2021/04/10 06:27:37;;;;;;;9.85;1.90;;;5.00;99.90;;;;;;5072347;28;20044;-82
2021/04/10 06:30:05;;;;;;;16.70;1.50;;;5.00;99.90;;;;;;5072682;28;20051;-82
2021/04/10 06:32:30;;;;;;;7.55;1.40;;;5.10;99.90;;;;;;5034167;28;20119;-82
2021/04/10 06:34:56;;;;;;;16.38;2.08;;;5.10;99.90;;;;;;5052302;28;20116;-82
2021/04/10 06:37:22;;;;;;;4.63;1.42;;;5.10;99.90;;;;;;5071513;28;20051;-83
2021/04/10 06:39:48;;;;;;;19.02;1.70;;;5.20;99.90;;;;;;5054812;28;20090;-82
2021/04/10 06:42:13;;;;;;;19.08;1.92;;;5.20;99.90;;;;;;5054328;28;20044;-86
2021/04/10 06:44:39;;;;;;;14.63;1.67;;;5.30;99.90;;;;;;5054912;28;20043;-81
2021/04/10 06:47:06;;;;;;;12.40;1.50;;;5.30;99.90;;;;;;5054715;28;20313;-81
2021/04/10 06:49:32;;;;;;;13.60;1.67;;;5.40;99.90;;;;;;5066227;28;20052;-81
2021/04/10 06:51:59;;;;;;;8.80;2.05;;;5.50;99.90;;;;;;5053930;28;20041;-82
2021/04/10 06:54:33;;;;;;;12.20;1.73;;;5.50;99.90;;;;;;5053773;28;20060;-81
2021/04/10 06:57:14;;;;;;;13.43;1.60;;;5.50;99.90;;;;;;5071118;28;20037;-81
2021/04/10 07:00:04;;;;;;;9.68;1.23;;;5.70;99.90;;;;;;5054565;28;20044;-81
2021/04/10 07:02:31;;;;;;;9.52;1.30;;;5.80;99.90;;;;;;5069919;28;20044;-81
2021/04/10 07:04:58;;;;;;;17.90;1.90;;;5.80;99.90;;;;;;5071680;28;20040;-84
2021/04/10 07:07:25;;;;;;;17.40;1.77;;;5.90;99.90;;;;;;5052981;28;20392;-81
2021/04/10 07:09:51;;;;;;;10.95;1.40;;;5.90;99.90;;;;;;5047767;28;20037;-81
2021/04/10 07:12:17;;;;;;;7.65;1.65;;;6.00;99.90;;;;;;5051448;28;20029;-81
2021/04/10 07:14:43;;;;;;;8.85;1.55;;;6.00;99.90;;;;;;5071734;28;20055;-81
2021/04/10 07:17:12;;;;;;;9.55;1.50;;;6.00;99.90;;;;;;5036693;28;20354;-81
2021/04/10 07:19:39;;;;;;;13.60;2.42;;;6.00;99.90;;;;;;5037926;28;20056;-81
2021/04/10 07:22:09;;;;;;;6.00;1.17;;;6.10;99.90;;;;;;5031777;28;20159;-81
2021/04/10 07:24:41;;;;;;;21.15;1.55;;;6.20;99.90;;;;;;5048090;28;20635;-81
2021/04/10 07:27:14;;;;;;;12.25;1.67;;;6.20;99.90;;;;;;5071359;28;20044;-80
2021/04/10 07:29:59;;;;;;;4.53;1.17;;;6.20;99.90;;;;;;5068142;28;20480;-82
2021/04/10 07:32:32;;;;;;;10.93;1.95;;;6.30;99.90;;;;;;5049514;28;20508;-83
2021/04/10 07:34:59;;;;;;;5.20;1.15;;;6.40;99.90;;;;;;5053509;28;20071;-83
2021/04/10 07:37:47;;;;;;;12.77;1.63;;;6.40;99.90;;;;;;5052559;28;20041;-85
2021/04/10 07:40:28;;;;;;;7.05;1.50;;;6.50;99.90;;;;;;5068152;28;20106;-82
2021/04/10 07:42:59;;;;;;;;;;;6.50;99.90;;;;;;5071926;28;20477;-83
2021/04/10 07:45:36;;;;;;;12.10;1.42;;;6.50;99.90;;;;;;5048482;28;19924;-86
2021/04/10 07:48:14;;;;;;;7.53;1.15;;;6.40;99.90;;;;;;5035720;28;20053;-84
2021/04/10 07:50:40;;;;;;;15.95;1.92;;;6.30;99.90;;;;;;5070322;28;20040;-83
2021/04/10 07:53:26;;;;;;;6.15;1.27;;;6.30;99.90;;;;;;5050268;28;20040;-82
2021/04/10 07:55:55;;;;;;;10.02;1.30;;;6.30;99.90;;;;;;5070542;28;20049;-82
2021/04/10 07:58:21;;;;;;;15.73;1.45;;;6.40;99.90;;;;;;5050931;28;20052;-83
2021/04/10 08:00:47;;;;;;;11.30;1.38;;;6.50;99.90;;;;;;5051407;28;20041;-83
2021/04/10 08:03:30;;;;;;;16.35;1.40;;;6.60;99.90;;;;;;5052387;28;20128;-82
2021/04/10 08:06:17;;;;;;;10.85;1.13;;;6.60;99.90;;;;;;5069494;28;20080;-83
2021/04/10 08:08:58;;;;;;;12.98;1.23;;;6.70;99.90;;;;;;5033532;28;20547;-82
2021/04/10 08:11:35;;;;;;;8.63;1.15;;;6.70;99.90;;;;;;5057439;28;20119;-82
2021/04/10 08:14:05;;;;;;;13.35;1.63;;;6.70;99.90;;;;;;5052537;28;20086;-83
2021/04/10 08:16:31;;;;;;;15.48;1.55;;;6.60;99.90;;;;;;5069683;28;20557;-82
2021/04/10 08:19:00;;;;;;;6.70;1.65;;;6.60;99.90;;;;;;5057022;28;20041;-84
2021/04/10 08:21:34;;;;;;;14.32;1.95;;;6.70;99.90;;;;;;5020904;28;20064;-82
2021/04/10 08:24:02;;;;;;;11.98;1.90;;;6.80;99.90;;;;;;5052794;28;20093;-82
2021/04/10 08:26:28;;;;;;;7.55;0.95;;;7.00;99.90;;;;;;5051696;28;20047;-81
2021/04/10 08:28:55;;;;;;;17.70;1.40;;;7.00;99.90;;;;;;5052444;28;20036;-82
2021/04/10 08:31:21;;;;;;;6.93;0.93;;;7.00;99.90;;;;;;5068907;28;20075;-87
2021/04/10 08:33:47;;;;;;;8.73;0.98;;;6.90;99.90;;;;;;5052385;28;20480;-82
2021/04/10 08:36:15;;;;;;;4.80;1.05;;;6.70;99.90;;;;;;5035511;28;20048;-84
2021/04/10 08:38:42;;;;;;;8.80;1.50;;;6.60;99.90;;;;;;5069296;28;20051;-83
2021/04/10 08:41:10;;;;;;;10.00;1.25;;;6.60;99.90;;;;;;5069871;28;20116;-82
2021/04/10 08:43:39;;;;;;;6.35;1.38;;;6.70;99.90;;;;;;5069022;28;20531;-83
2021/04/10 08:46:08;;;;;;;6.90;1.33;;;6.90;99.90;;;;;;5068175;28;20052;-82
2021/04/10 08:48:36;;;;;;;12.48;1.83;;;7.10;99.90;;;;;;5048811;28;20071;-86
2021/04/10 08:51:04;;;;;;;11.30;1.77;;;7.40;99.90;;;;;;5048431;28;20067;-82
2021/04/10 08:53:38;;;;;;;8.68;1.50;;;7.50;99.90;;;;;;5068310;28;20048;-82
2021/04/10 08:56:10;;;;;;;7.35;1.40;;;7.50;99.90;;;;;;5052034;28;20066;-82
2021/04/10 08:58:40;;;;;;;7.45;1.17;;;7.40;99.90;;;;;;5050845;28;20048;-82
2021/04/10 09:01:08;;;;;;;11.40;2.23;;;7.50;99.90;;;;;;5050510;28;20135;-82
2021/04/10 09:03:46;;;;;;;6.28;1.20;;;7.80;99.90;;;;;;5050642;28;20334;-82
2021/04/10 09:06:13;;;;;;;6.90;0.82;;;7.90;99.90;;;;;;5050312;28;20056;-82
2021/04/10 09:08:39;;;;;;;7.78;1.83;;;8.00;99.90;;;;;;5050640;28;20036;-82
2021/04/10 09:11:05;;;;;;;10.45;0.93;;;8.00;99.90;;;;;;5037712;28;20038;-83
2021/04/10 09:13:46;;;;;;;5.68;1.15;;;8.00;99.90;;;;;;5068469;28;20463;-83
2021/04/10 09:16:26;;;;;;;11.70;1.98;;;7.80;99.90;;;;;;5069363;28;20042;-82
2021/04/10 09:18:56;;;;;;;7.18;1.00;;;7.70;99.90;;;;;;5069350;28;20076;-82
2021/04/10 09:21:40;;;;;;;10.80;1.30;;;7.80;99.90;;;;;;5046201;28;20044;-86
2021/04/10 09:24:22;;;;;;;7.95;1.42;;;7.80;99.90;;;;;;5047863;28;20059;-82
2021/04/10 09:26:55;;;;;;;8.88;1.25;;;7.70;99.90;;;;;;5068818;28;20044;-82
2021/04/10 09:29:21;;;;;;;3.83;1.02;;;7.70;99.90;;;;;;5069166;28;20055;-84
2021/04/10 09:31:53;;;;;;;2.75;0.77;;;7.60;99.90;;;;;;5050866;28;20063;-83
2021/04/10 09:34:52;;;;;;;6.85;1.40;;;7.60;99.90;;;;;;5051053;28;20443;-82
2021/04/10 09:37:21;;;;;;;8.65;1.40;;;7.70;99.90;;;;;;5064932;28;20036;-82
2021/04/10 09:39:56;;;;;;;12.25;1.10;;;8.00;99.90;;;;;;5047640;28;20048;-83
2021/04/10 09:42:34;;;;;;;4.55;0.98;;;8.40;99.90;;;;;;5058416;28;20064;-83
2021/04/10 09:45:12;;;;;;;8.23;1.50;;;8.70;99.90;;;;;;5049683;28;20097;-82
2021/04/10 09:50:29;;;;;;;9.70;1.20;;;8.80;99.90;;;;;;5065767;28;20056;-84
2021/04/10 09:52:59;;;;;;;7.55;1.23;;;9.00;99.90;;;;;;5061779;28;20033;-83
2021/04/10 09:55:27;;;;;;;8.35;1.23;;;9.30;99.90;;;;;;5045391;28;20041;-86
2021/04/10 09:57:54;;;;;;;12.38;1.65;;;9.50;99.90;;;;;;5042978;28;20090;-83
2021/04/10 10:00:43;;;;;;;8.30;2.35;;;9.70;99.90;;;;;;5050789;28;20043;-82
2021/04/10 10:03:11;;;;;;;4.97;0.80;;;9.90;99.90;;;;;;5050894;28;20037;-82
2021/04/10 10:05:41;;;;;;;7.10;0.98;;;10.00;99.90;;;;;;5036407;28;20044;-82
2021/04/10 10:08:10;;;;;;;5.78;0.85;;;10.20;99.90;;;;;;5069040;28;20089;-83
2021/04/10 10:10:44;;;;;;;7.05;1.00;;;10.30;99.90;;;;;;5035552;28;20120;-82
2021/04/10 10:13:11;;;;;;;15.13;2.15;;;10.50;99.90;;;;;;5068996;28;20036;-83
2021/04/10 10:15:38;;;;;;;7.00;1.08;;;10.70;99.90;;;;;;5048886;28;20044;-83
2021/04/10 10:18:18;;;;;;;9.15;1.40;;;10.90;99.90;;;;;;5067556;28;20143;-83
2021/04/10 10:20:56;;;;;;;8.55;1.40;;;10.90;99.90;;;;;;5068109;28;20094;-83
2021/04/10 10:23:27;;;;;;;4.43;1.17;;;11.10;99.90;;;;;;5050858;28;20305;-83
2021/04/10 10:25:54;;;;;;;5.32;1.35;;;11.20;99.90;;;;;;5050115;28;20044;-83
2021/04/10 10:28:21;;;;;;;4.68;0.95;;;11.20;98.40;;;;;;5049996;28;20370;-83
2021/04/10 10:30:48;;;;;;;7.78;1.20;;;11.30;99.90;;;;;;5047080;28;20041;-84
2021/04/10 10:33:14;;;;;;;7.80;1.38;;;11.40;99.90;;;;;;5067866;28;20037;-83
2021/04/10 10:35:50;;;;;;;5.60;1.27;;;11.30;93.30;;;;;;5033229;28;20480;-83
2021/04/10 10:38:16;;;;;;;4.82;1.02;;;11.50;97.90;;;;;;5068145;28;20552;-82
2021/04/10 10:40:47;;;;;;;8.70;1.48;;;11.50;98.90;;;;;;5049499;28;20119;-83
2021/04/10 10:43:14;;;;;;;8.02;1.35;;;11.40;97.70;;;;;;5049167;28;20051;-83
2021/04/10 10:45:40;;;;;;;7.35;1.30;;;11.40;94.40;;;;;;5066073;28;20049;-83
2021/04/10 10:48:17;;;;;;;7.20;1.30;;;11.40;95.60;;;;;;5067429;28;20060;-83
2021/04/10 10:50:43;;;;;;;4.13;0.93;;;11.50;99.90;;;;;;5067065;28;20039;-83
2021/04/10 10:53:30;;;;;;;6.63;1.30;;;11.70;99.90;;;;;;5049961;28;20044;-82
2021/04/10 10:56:10;;;;;;;6.25;1.58;;;11.90;99.70;;;;;;5050276;28;20040;-83
2021/04/10 10:58:41;;;;;;;9.15;1.40;;;12.10;96.00;;;;;;5047377;28;20037;-83
2021/04/10 11:01:15;;;;;;;4.30;1.10;;;12.20;96.30;;;;;;5052384;28;20049;-83
2021/04/10 11:03:53;;;;;;;4.07;1.08;;;12.40;92.50;;;;;;5070495;28;20071;-83
2021/04/10 11:06:22;;;;;;;9.80;1.17;;;12.50;85.40;;;;;;5053735;28;20488;-83
2021/04/10 11:08:48;;;;;;;6.57;1.35;;;12.70;98.00;;;;;;5052627;28;20040;-83
2021/04/10 11:11:14;;;;;;;7.20;1.25;;;12.80;98.80;;;;;;5053799;28;20834;-83
2021/04/10 11:13:45;;;;;;;10.63;1.17;;;12.80;97.50;;;;;;5017599;28;20048;-85
2021/04/10 11:16:14;;;;;;;10.93;1.05;;;12.90;96.00;;;;;;5053093;28;20067;-83
2021/04/10 11:18:41;;;;;;;4.90;1.17;;;13.00;95.00;;;;;;5052116;28;20783;-83
2021/04/10 11:21:36;;;;;;;4.55;1.10;;;12.90;92.60;;;;;;5053250;28;20043;-83
2021/04/10 11:24:03;;;;;;;5.13;1.23;;;13.10;94.10;;;;;;5061504;28;20053;-83
2021/04/10 11:26:52;;;;;;;9.07;1.20;;;13.10;90.40;;;;;;5071248;28;20045;-83
2021/04/10 11:29:18;;;;;;;7.75;1.27;;;13.10;93.60;;;;;;5057914;28;20056;-85
2021/04/10 11:32:03;;;;;;;6.20;1.00;;;13.20;78.90;;;;;;5046894;28;20381;-85
2021/04/10 11:34:30;;;;;;;4.72;0.93;;;13.00;79.60;;;;;;5070535;28;20044;-84
2021/04/10 11:36:57;;;;;;;7.35;1.08;;;13.00;72.80;;;;;;5051805;28;20155;-84
2021/04/10 11:39:24;;;;;;;7.80;1.02;;;12.70;91.70;;;;;;5051179;28;20587;-84
2021/04/10 11:41:50;;;;;;;4.13;1.05;;;12.90;80.10;;;;;;5035264;28;20036;-84
2021/04/10 11:44:17;;;;;;;5.53;1.02;;;13.00;86.80;;;;;;5036950;28;20048;-83
2021/04/10 11:46:43;;;;;;;8.13;1.10;;;13.10;83.90;;;;;;5069941;28;20542;-84
2021/04/10 11:49:09;;;;;;;3.08;1.02;;;13.20;77.90;;;;;;5043182;28;20040;-84
2021/04/10 11:51:35;;;;;;;5.28;1.38;;;13.10;89.00;;;;;;5031583;28;20044;-86
2021/04/10 11:54:01;;;;;;;6.10;1.17;;;13.00;77.30;;;;;;5070441;28;20577;-84
2021/04/10 11:56:31;;;;;;;3.60;1.05;;;13.10;81.00;;;;;;5053149;28;20068;-84
2021/04/10 11:59:04;;;;;;;6.50;1.25;;;13.10;87.00;;;;;;5070093;28;20390;-84
2021/04/10 12:01:30;;;;;;;16.23;1.23;;;13.20;86.90;;;;;;5052768;28;20227;-85
2021/04/10 12:04:02;;;;;;;8.73;1.10;;;13.20;80.70;;;;;;5069206;28;20119;-84
2021/04/10 12:06:29;;;;;;;6.72;1.50;;;13.20;75.00;;;;;;5070795;28;20141;-85
2021/04/10 12:08:58;;;;;;;7.80;0.88;;;13.20;76.30;;;;;;5038243;28;20223;-85
2021/04/10 12:11:24;;;;;;;3.28;1.10;;;13.30;88.10;;;;;;5052245;28;20369;-84
2021/04/10 12:13:50;;;;;;;3.88;1.15;;;13.40;82.30;;;;;;5069728;28;20044;-85
2021/04/10 12:16:16;;;;;;;3.40;0.90;;;13.50;82.90;;;;;;5052431;28;20040;-84
2021/04/10 12:18:42;;;;;;;4.55;1.13;;;13.60;91.70;;;;;;5051354;28;20057;-85
2021/04/10 12:21:08;;;;;;;6.85;1.33;;;13.60;75.80;;;;;;5014113;28;20396;-83
2021/04/10 12:23:34;;;;;;;4.82;1.27;;;13.60;78.40;;;;;;5042736;28;20404;-86
2021/04/10 12:26:02;;;;;;;4.13;1.00;;;13.60;76.00;;;;;;5051674;28;20044;-84
2021/04/10 12:28:29;;;;;;;5.35;1.35;;;13.50;76.30;;;;;;5053184;28;20045;-85
2021/04/10 12:30:55;;;;;;;9.48;0.95;;;13.60;79.20;;;;;;5049078;28;20056;-84
2021/04/10 12:33:22;;;;;;;4.65;1.20;;;13.70;80.00;;;;;;5052519;28;20032;-84
2021/04/10 12:35:48;;;;;;;4.68;0.90;;;13.70;75.10;;;;;;5051357;28;20060;-85
2021/04/10 12:38:15;;;;;;;1.15;0.60;;;13.80;78.20;;;;;;5052336;28;20040;-84
2021/04/10 12:40:40;;;;;;;5.13;1.15;;;13.90;76.40;;;;;;5051692;28;20040;-86
2021/04/10 12:43:06;;;;;;;6.05;0.98;;;13.50;71.50;;;;;;5035043;28;20059;-85
2021/04/10 12:45:32;;;;;;;4.93;1.40;;;13.70;78.10;;;;;;5015878;28;20087;-84
2021/04/10 12:47:58;;;;;;;2.92;1.17;;;13.70;82.90;;;;;;5050111;28;20640;-85
2021/04/10 12:50:25;;;;;;;8.07;1.20;;;13.70;72.00;;;;;;5051786;28;20071;-84
2021/04/10 12:52:52;;;;;;;3.70;0.90;;;13.50;65.20;;;;;;5068956;28;20048;-84
2021/04/10 12:55:18;;;;;;;3.53;0.95;;;13.50;74.60;;;;;;5069646;28;20037;-83
2021/04/10 12:57:44;;;;;;;5.35;0.82;;;13.70;83.10;;;;;;5050936;28;20055;-84
2021/04/10 13:00:12;;;;;;;3.35;1.20;;;13.90;78.10;;;;;;5028379;28;20040;-85
2021/04/10 13:02:38;;;;;;;5.15;1.45;;;13.80;75.30;;;;;;5031872;28;20455;-84